Conisbrough, United Kingdom
Current Conditions -  °F | °C
As of 2:50 PM on Wednesday 22 Oct 2014 (Local Time) from EGCN Reporting Station
Drizzle Drizzle  
Wind Chill: 12°   Ceiling: Unl
Heat Index: 12°   Visibility: 5mi
Dew Point: 10°   Wind: 12mph
Humidity: 88%   Direction: 220°SW
Pressure: 30.21"   Gusts: NA
Location:  53.48°N, 1.23°W
Report Text: EGCN 221350Z 22010KT 8000 DZ SCT025 SCT029 12/10 Q1023
Loading
Personal Weather Stations






























Interactive Weather Map
Tropical Storm Tracking
New forecast layout! Learn more

10-Day Weather Forecast

Advertisements
Track Severe Weather on mobile